Time;durP1;ratioP1;P1;durP2;ratioP2;P2;SDS_P1;SDS_P2;PMS_P1;PMS_P2;Temp;Humidity;BMP_temperature;BMP_pressure;BME280_temperature;BME280_humidity;BME280_pressure;Samples;Min_cycle;Max_cycle;Signal;HPM_P1;HPM_P2
2023/01/25 06:28:37;;;;;;;20.57;16.67;;;1.80;99.90;;;;;;5091764;27;20562;-66
2023/01/25 06:31:06;;;;;;;19.63;16.97;;;1.80;99.90;;;;;;5091294;28;20449;-66
2023/01/25 06:33:33;;;;;;;17.57;15.30;;;2.00;99.90;;;;;;5091237;28;20445;-66
2023/01/25 06:36:01;;;;;;;18.43;15.17;;;2.20;99.90;;;;;;5091374;28;20445;-67
2023/01/25 06:38:28;;;;;;;16.07;14.40;;;2.40;99.90;;;;;;5090831;28;20469;-67
2023/01/25 06:40:58;;;;;;;19.27;15.97;;;2.60;99.90;;;;;;5091241;28;20531;-66
2023/01/25 06:43:24;;;;;;;15.50;13.90;;;2.80;99.90;;;;;;5090883;28;20499;-67
2023/01/25 06:45:52;;;;;;;19.27;15.70;;;3.00;99.90;;;;;;5091041;28;20449;-67
2023/01/25 06:48:19;;;;;;;16.33;14.77;;;3.20;99.90;;;;;;5090747;28;20490;-67
2023/01/25 06:50:45;;;;;;;24.47;17.60;;;3.20;99.90;;;;;;5090775;28;20820;-67
2023/01/25 06:53:12;;;;;;;19.10;15.43;;;3.40;99.90;;;;;;5090897;28;20450;-68
2023/01/25 06:55:39;;;;;;;22.73;17.90;;;3.50;99.90;;;;;;5090843;28;20461;-67
2023/01/25 06:58:05;;;;;;;20.30;16.53;;;3.60;99.90;;;;;;5090412;28;20973;-68
2023/01/25 07:00:32;;;;;;;18.30;15.60;;;3.70;99.90;;;;;;5090711;28;20449;-68
2023/01/25 07:03:00;;;;;;;15.73;12.87;;;3.70;99.90;;;;;;5090895;28;20453;-68
2023/01/25 07:05:27;;;;;;;17.63;14.37;;;3.80;99.90;;;;;;5090694;28;20907;-68
2023/01/25 07:07:54;;;;;;;15.57;13.83;;;3.80;99.90;;;;;;5090506;28;20573;-68
2023/01/25 07:10:20;;;;;;;15.40;13.37;;;3.90;99.90;;;;;;5090556;28;20444;-68
2023/01/25 07:12:47;;;;;;;17.40;13.60;;;3.90;99.90;;;;;;5090551;28;20449;-68
2023/01/25 07:15:14;;;;;;;15.63;13.77;;;4.00;99.90;;;;;;5090627;28;20453;-68
2023/01/25 07:17:40;;;;;;;15.20;13.60;;;4.00;99.90;;;;;;5090383;28;20469;-70
2023/01/25 07:20:10;;;;;;;14.70;12.87;;;4.00;99.90;;;;;;5090291;28;20453;-68
2023/01/25 07:22:36;;;;;;;17.23;13.57;;;4.10;99.90;;;;;;5090537;28;20453;-68
2023/01/25 07:25:05;;;;;;;18.70;16.30;;;4.00;99.90;;;;;;5090118;28;20450;-68
2023/01/25 07:27:33;;;;;;;15.60;13.50;;;4.10;99.90;;;;;;5089726;28;20576;-68
2023/01/25 07:29:59;;;;;;;15.30;13.00;;;4.00;99.90;;;;;;5089925;28;20937;-68
2023/01/25 07:32:26;;;;;;;13.27;11.87;;;4.00;99.90;;;;;;5090260;28;20570;-68
2023/01/25 07:34:52;;;;;;;13.30;11.87;;;4.10;99.90;;;;;;5090150;28;20457;-68
2023/01/25 07:37:20;;;;;;;14.70;12.30;;;4.10;99.90;;;;;;5089916;28;20806;-68
2023/01/25 07:39:49;;;;;;;15.30;12.30;;;4.20;99.90;;;;;;5077603;28;20821;-68
2023/01/25 07:42:16;;;;;;;13.67;12.03;;;4.20;99.90;;;;;;5076448;28;20450;-68
2023/01/25 07:44:42;;;;;;;13.50;12.20;;;4.30;99.90;;;;;;5076590;28;20800;-68
2023/01/25 07:47:09;;;;;;;12.70;11.40;;;4.30;99.90;;;;;;5076172;28;20474;-68
2023/01/25 07:49:36;;;;;;;13.93;12.20;;;4.20;99.90;;;;;;5076387;28;20509;-68
2023/01/25 07:52:02;;;;;;;16.40;12.40;;;4.20;99.90;;;;;;5076103;28;20855;-68
2023/01/25 07:54:30;;;;;;;15.40;12.77;;;4.20;99.90;;;;;;5076833;28;20453;-68
2023/01/25 07:56:57;;;;;;;13.10;11.80;;;4.20;99.90;;;;;;5076156;28;20475;-68
2023/01/25 07:59:25;;;;;;;13.33;11.37;;;4.30;99.90;;;;;;5076344;28;20450;-68
2023/01/25 08:01:52;;;;;;;13.60;12.20;;;4.30;99.90;;;;;;5076318;28;20504;-68
2023/01/25 08:04:18;;;;;;;11.93;10.73;;;4.30;99.90;;;;;;5076282;28;20461;-68
2023/01/25 08:06:45;;;;;;;14.90;12.00;;;4.20;99.90;;;;;;5076068;28;20813;-68
2023/01/25 08:09:14;;;;;;;13.03;11.67;;;4.20;99.90;;;;;;5076004;28;20843;-68
2023/01/25 08:11:42;;;;;;;13.00;11.50;;;4.30;99.90;;;;;;5077273;28;20457;-68
2023/01/25 08:14:10;;;;;;;13.30;11.90;;;4.40;99.90;;;;;;5076984;28;20511;-68
2023/01/25 08:16:37;;;;;;;13.20;11.40;;;4.30;99.90;;;;;;5076329;28;20470;-68
2023/01/25 08:19:04;;;;;;;12.50;11.20;;;4.40;99.90;;;;;;5076213;28;20503;-68
2023/01/25 08:21:32;;;;;;;12.63;11.07;;;4.30;99.90;;;;;;5075869;28;20450;-68
2023/01/25 08:24:01;;;;;;;12.77;11.40;;;4.30;99.90;;;;;;5076029;28;20523;-68
2023/01/25 08:26:28;;;;;;;13.00;11.70;;;4.30;99.90;;;;;;5075720;28;20489;-68
2023/01/25 08:28:57;;;;;;;13.27;11.97;;;4.20;99.90;;;;;;5075875;28;20490;-68
2023/01/25 08:31:25;;;;;;;14.37;11.47;;;4.30;99.90;;;;;;5075459;28;20941;-68
2023/01/25 08:33:52;;;;;;;13.20;10.70;;;4.30;99.90;;;;;;5075896;28;20529;-68
2023/01/25 08:36:22;;;;;;;12.80;11.40;;;4.30;99.90;;;;;;5075693;28;20571;-68
2023/01/25 08:38:54;;;;;;;13.30;11.23;;;4.40;99.90;;;;;;5075333;28;20898;-68
2023/01/25 08:41:20;;;;;;;13.30;11.17;;;4.40;99.90;;;;;;5075173;28;20442;-68
2023/01/25 08:43:47;;;;;;;11.67;10.47;;;4.40;99.90;;;;;;5075549;28;20454;-69
2023/01/25 08:46:16;;;;;;;12.43;11.10;;;4.30;99.90;;;;;;5075190;28;20832;-68
2023/01/25 08:48:43;;;;;;;12.27;10.90;;;4.30;99.90;;;;;;5075436;28;20504;-68
2023/01/25 08:51:12;;;;;;;12.00;10.80;;;4.30;99.90;;;;;;5074266;28;20454;-68
2023/01/25 08:53:39;;;;;;;13.07;11.77;;;4.30;99.90;;;;;;5075483;28;20508;-68
2023/01/25 08:56:08;;;;;;;13.27;11.87;;;4.30;99.90;;;;;;5075390;28;20504;-68
2023/01/25 08:58:38;;;;;;;12.93;11.63;;;4.20;99.90;;;;;;5075100;28;20450;-68
2023/01/25 09:01:06;;;;;;;12.67;11.37;;;4.20;99.90;;;;;;5076749;28;20450;-68
2023/01/25 09:03:37;;;;;;;13.60;11.90;;;4.20;99.90;;;;;;5077398;28;20461;-68
2023/01/25 09:06:04;;;;;;;12.47;11.17;;;4.20;99.90;;;;;;5076996;28;20471;-68
2023/01/25 09:08:31;;;;;;;12.73;11.43;;;4.20;99.90;;;;;;5074705;28;20477;-69
2023/01/25 09:11:01;;;;;;;12.10;10.73;;;4.20;99.90;;;;;;5074921;28;20503;-69
2023/01/25 09:13:27;;;;;;;12.83;11.53;;;4.30;99.90;;;;;;5074595;28;20945;-69
2023/01/25 09:15:59;;;;;;;13.07;11.20;;;4.30;99.90;;;;;;5074375;28;20901;-68
2023/01/25 09:18:26;;;;;;;14.13;12.20;;;4.20;99.90;;;;;;5074782;28;20465;-68
2023/01/25 09:20:54;;;;;;;12.63;11.33;;;4.30;99.90;;;;;;5074453;28;20450;-68
2023/01/25 09:23:22;;;;;;;13.40;12.10;;;4.40;99.90;;;;;;5074678;28;20455;-69
2023/01/25 09:25:49;;;;;;;14.03;11.40;;;4.30;99.90;;;;;;5074205;28;20817;-68
2023/01/25 09:28:16;;;;;;;13.60;12.07;;;4.40;99.90;;;;;;5073919;28;20482;-68
2023/01/25 09:30:43;;;;;;;13.50;12.10;;;4.40;99.90;;;;;;5074149;28;20822;-69
2023/01/25 09:33:09;;;;;;;13.93;12.43;;;4.40;99.90;;;;;;5074367;28;20446;-68
2023/01/25 09:35:36;;;;;;;13.33;11.43;;;4.40;99.90;;;;;;5074303;28;20469;-68
2023/01/25 09:38:04;;;;;;;15.30;12.00;;;4.50;99.90;;;;;;5074263;28;20543;-68
2023/01/25 09:40:38;;;;;;;15.10;13.27;;;4.50;99.90;;;;;;5073883;28;20999;-68
2023/01/25 09:43:12;;;;;;;13.40;11.70;;;4.40;99.90;;;;;;5074037;28;20925;-68
2023/01/25 09:45:39;;;;;;;13.73;12.23;;;4.40;99.90;;;;;;5074150;28;20435;-68
2023/01/25 09:48:22;;;;;;;14.47;12.23;;;4.40;99.90;;;;;;5073619;28;21043;-68
2023/01/25 09:51:06;;;;;;;15.03;12.80;;;4.40;99.90;;;;;;5073817;28;20450;-69
2023/01/25 09:53:38;;;;;;;14.07;12.20;;;4.40;99.90;;;;;;5074241;28;20434;-68
2023/01/25 09:56:12;;;;;;;14.50;12.23;;;4.40;99.90;;;;;;5074344;28;20438;-68
2023/01/25 09:58:44;;;;;;;13.33;11.93;;;4.40;99.90;;;;;;5073986;28;20805;-68
2023/01/25 10:01:39;;;;;;;14.07;11.73;;;4.40;99.90;;;;;;5073611;28;20456;-68
2023/01/25 10:04:12;;;;;;;13.63;11.97;;;4.30;99.90;;;;;;5072015;28;20798;-68
2023/01/25 10:06:41;;;;;;;16.27;13.50;;;4.40;99.90;;;;;;5073996;28;20470;-68
2023/01/25 10:09:23;;;;;;;15.03;13.53;;;4.40;99.90;;;;;;5073886;28;20474;-68
2023/01/25 10:11:49;;;;;;;15.30;12.97;;;4.50;99.90;;;;;;5073983;28;20454;-68
2023/01/25 10:14:18;;;;;;;14.07;12.57;;;4.40;99.90;;;;;;5074047;28;20499;-68
2023/01/25 10:16:58;;;;;;;13.57;12.07;;;4.50;99.90;;;;;;5073817;28;20497;-68
2023/01/25 10:19:33;;;;;;;14.00;12.63;;;4.50;99.90;;;;;;5074618;28;20782;-68
2023/01/25 10:22:04;;;;;;;15.03;11.90;;;4.40;99.90;;;;;;5073913;28;20434;-68
2023/01/25 10:25:04;;;;;;;13.93;12.37;;;4.50;99.90;;;;;;5073722;28;20442;-68
2023/01/25 10:27:39;;;;;;;14.27;12.77;;;4.50;99.90;;;;;;5073134;28;20515;-68
2023/01/25 10:30:21;;;;;;;14.70;12.40;;;4.60;99.90;;;;;;5073856;28;20438;-68
2023/01/25 10:32:51;;;;;;;15.10;12.90;;;4.50;99.90;;;;;;5073745;28;20488;-68
2023/01/25 10:35:20;;;;;;;14.63;13.10;;;4.60;99.90;;;;;;5073816;28;20445;-68
2023/01/25 10:37:49;;;;;;;16.00;13.33;;;4.50;99.90;;;;;;5073270;28;20868;-68
2023/01/25 10:40:21;;;;;;;15.33;13.23;;;4.60;99.90;;;;;;5073605;28;20457;-69
2023/01/25 10:42:53;;;;;;;15.30;13.70;;;4.70;99.90;;;;;;5073715;28;20496;-68
2023/01/25 10:45:20;;;;;;;16.97;14.30;;;4.70;99.90;;;;;;5073490;28;20439;-68
2023/01/25 10:47:50;;;;;;;14.87;12.80;;;4.60;99.90;;;;;;5073338;28;20482;-68
2023/01/25 10:50:46;;;;;;;15.33;13.13;;;4.60;99.90;;;;;;5073637;28;20507;-69
2023/01/25 10:53:23;;;;;;;13.90;12.40;;;4.60;99.90;;;;;;5073741;28;20434;-68
2023/01/25 10:56:05;;;;;;;15.00;13.33;;;4.70;99.90;;;;;;5073679;28;20498;-68
2023/01/25 10:58:35;;;;;;;14.73;13.20;;;4.50;99.90;;;;;;5073497;28;20473;-68
2023/01/25 11:01:05;;;;;;;15.37;13.40;;;4.60;99.90;;;;;;5073455;28;20461;-68
2023/01/25 11:03:37;;;;;;;15.70;13.27;;;4.60;99.90;;;;;;5073341;28;20944;-68
2023/01/25 11:06:05;;;;;;;13.80;12.40;;;4.50;99.90;;;;;;5073720;28;20457;-69
2023/01/25 11:08:37;;;;;;;15.23;13.60;;;4.40;99.90;;;;;;5073534;28;20887;-68
2023/01/25 11:11:25;;;;;;;15.77;13.90;;;4.50;99.90;;;;;;5073332;28;20938;-68
2023/01/25 11:13:54;;;;;;;18.97;15.03;;;4.50;99.90;;;;;;5074839;28;20495;-68
2023/01/25 11:16:29;;;;;;;15.60;13.90;;;4.60;99.90;;;;;;5077215;28;20533;-68
2023/01/25 11:18:58;;;;;;;15.70;14.10;;;4.60;99.90;;;;;;5077277;28;20430;-68
2023/01/25 11:21:27;;;;;;;16.83;14.60;;;4.60;99.90;;;;;;5077258;28;20458;-68
2023/01/25 11:24:02;;;;;;;17.87;14.00;;;4.60;99.90;;;;;;5077131;28;20454;-68
2023/01/25 11:26:31;;;;;;;18.63;13.60;;;4.60;99.90;;;;;;5092137;28;20490;-68
2023/01/25 11:29:10;;;;;;;16.53;14.70;;;4.60;99.90;;;;;;5099875;28;20523;-69
2023/01/25 11:31:40;;;;;;;16.90;14.57;;;4.60;99.90;;;;;;5100190;28;20421;-68
2023/01/25 11:34:10;;;;;;;16.77;14.77;;;4.60;99.90;;;;;;5086382;28;20766;-68
2023/01/25 11:36:55;;;;;;;15.90;14.17;;;4.60;99.90;;;;;;5077779;28;20496;-69
2023/01/25 11:39:36;;;;;;;18.80;14.90;;;4.60;99.90;;;;;;5077211;28;20488;-68
2023/01/25 11:42:15;;;;;;;16.80;14.27;;;4.60;99.90;;;;;;5076917;28;20488;-68
2023/01/25 11:45:29;;;;;;;16.83;15.00;;;4.60;99.90;;;;;;5076813;28;20442;-68
2023/01/25 11:48:09;;;;;;;16.47;14.63;;;4.70;99.90;;;;;;5076567;28;20478;-68
2023/01/25 11:50:41;;;;;;;17.07;15.23;;;4.70;99.90;;;;;;5076717;28;20438;-68
2023/01/25 11:53:35;;;;;;;16.40;13.33;;;4.60;99.90;;;;;;5076770;28;20445;-68
2023/01/25 11:56:15;;;;;;;17.40;14.90;;;4.50;99.90;;;;;;5076607;28;20456;-68
2023/01/25 11:59:00;;;;;;;18.77;16.43;;;4.50;99.90;;;;;;5076607;28;20434;-68
2023/01/25 12:01:37;;;;;;;16.00;14.40;;;4.50;99.90;;;;;;5076245;28;20894;-69
2023/01/25 12:04:25;;;;;;;18.90;15.13;;;4.50;99.90;;;;;;5076427;28;20434;-68
2023/01/25 12:07:02;;;;;;;23.43;20.93;;;4.50;99.90;;;;;;5076441;28;20533;-68
2023/01/25 12:09:58;;;;;;;18.67;16.67;;;4.40;99.90;;;;;;5076255;28;20486;-69
2023/01/25 12:12:40;;;;;;;16.33;14.47;;;4.40;99.90;;;;;;5075850;28;20465;-68
2023/01/25 12:15:23;;;;;;;15.60;13.43;;;4.40;99.90;;;;;;5076106;28;20441;-68
2023/01/25 12:18:21;;;;;;;15.97;14.37;;;4.40;99.90;;;;;;5076025;28;20556;-68
2023/01/25 12:21:02;;;;;;;18.03;15.97;;;4.30;99.90;;;;;;5071172;28;20458;-68
2023/01/25 12:23:53;;;;;;;17.17;14.70;;;4.30;99.90;;;;;;5090621;28;20456;-69
2023/01/25 12:26:26;;;;;;;20.43;17.13;;;4.40;99.90;;;;;;5078315;28;20942;-69
2023/01/25 12:29:03;;;;;;;18.60;15.30;;;4.40;99.90;;;;;;5083896;28;20463;-69
2023/01/25 12:31:40;;;;;;;19.00;17.10;;;4.40;99.90;;;;;;5083384;28;20469;-69
2023/01/25 12:34:16;;;;;;;18.50;16.43;;;4.40;99.90;;;;;;5076385;28;20848;-68
2023/01/25 12:36:44;;;;;;;21.37;15.90;;;4.40;99.90;;;;;;5076320;28;20535;-68
2023/01/25 12:39:14;;;;;;;19.07;16.70;;;4.40;99.90;;;;;;5076293;28;20451;-69
2023/01/25 12:41:45;;;;;;;17.07;15.27;;;4.30;99.90;;;;;;5076520;28;20454;-69
2023/01/25 12:44:19;;;;;;;18.20;16.17;;;4.40;99.90;;;;;;5076577;28;20442;-69
2023/01/25 12:46:55;;;;;;;17.67;15.40;;;4.50;99.90;;;;;;5076296;28;20500;-68
2023/01/25 12:49:30;;;;;;;17.73;15.90;;;4.40;99.90;;;;;;5075491;28;20462;-68
2023/01/25 12:52:00;;;;;;;19.27;15.60;;;4.40;99.90;;;;;;5075936;28;20438;-68
2023/01/25 12:54:33;;;;;;;18.23;14.67;;;4.40;99.90;;;;;;5075940;28;20434;-68
2023/01/25 12:57:10;;;;;;;19.90;15.53;;;4.40;99.90;;;;;;5075813;28;20470;-69
2023/01/25 12:59:45;;;;;;;20.73;17.00;;;4.50;99.90;;;;;;5075034;28;20438;-68
2023/01/25 13:02:30;;;;;;;19.70;17.10;;;4.50;99.90;;;;;;5075190;28;20438;-68
2023/01/25 13:05:02;;;;;;;19.80;17.40;;;4.50;99.90;;;;;;5075291;28;20438;-68
2023/01/25 13:07:39;;;;;;;20.20;16.93;;;4.50;99.90;;;;;;5075558;28;20527;-68
2023/01/25 13:10:15;;;;;;;19.10;16.43;;;4.50;99.90;;;;;;5075748;28;20462;-68
2023/01/25 13:12:52;;;;;;;20.50;17.37;;;4.50;99.90;;;;;;5077368;28;20430;-68
2023/01/25 13:15:37;;;;;;;21.23;18.27;;;4.50;99.90;;;;;;5076959;28;20626;-68
2023/01/25 13:18:40;;;;;;;19.87;17.33;;;4.60;99.90;;;;;;5074518;28;20477;-69
2023/01/25 13:21:32;;;;;;;19.53;17.43;;;4.60;99.90;;;;;;5074703;28;20458;-68
2023/01/25 13:24:15;;;;;;;19.23;17.03;;;4.60;99.90;;;;;;5074536;28;20538;-69
2023/01/25 13:27:01;;;;;;;22.47;18.20;;;4.60;99.90;;;;;;5074524;28;20535;-68
2023/01/25 13:29:54;;;;;;;22.60;17.83;;;4.60;99.90;;;;;;5075208;28;20478;-68
2023/01/25 13:32:55;;;;;;;20.07;17.83;;;4.60;99.90;;;;;;5074337;28;20902;-68
2023/01/25 13:35:36;;;;;;;22.60;18.73;;;4.70;99.90;;;;;;5074756;28;20434;-68
2023/01/25 13:38:37;;;;;;;20.67;18.03;;;4.70;99.90;;;;;;5073918;28;20466;-68
2023/01/25 13:41:10;;;;;;;24.17;19.83;;;4.70;99.90;;;;;;5073965;28;20426;-69
2023/01/25 13:43:39;;;;;;;23.27;18.43;;;4.60;99.90;;;;;;5074322;28;20438;-68
2023/01/25 13:46:08;;;;;;;20.73;18.63;;;4.60;99.90;;;;;;5074230;28;20941;-68
2023/01/25 13:48:36;;;;;;;21.87;17.73;;;4.60;99.90;;;;;;5074211;28;20450;-68
2023/01/25 13:51:08;;;;;;;24.30;18.70;;;4.50;99.90;;;;;;5074205;28;20507;-68
2023/01/25 13:53:38;;;;;;;22.40;18.73;;;4.40;99.90;;;;;;5074089;28;20456;-68
2023/01/25 13:56:24;;;;;;;22.03;18.43;;;4.50;99.90;;;;;;5074144;28;20445;-68
2023/01/25 13:58:51;;;;;;;24.73;20.83;;;4.50;99.90;;;;;;5074057;28;20435;-68
2023/01/25 14:01:22;;;;;;;23.40;18.47;;;4.50;99.90;;;;;;5074192;28;20450;-68
2023/01/25 14:03:52;;;;;;;22.57;19.07;;;4.50;99.90;;;;;;5074099;28;20449;-68
2023/01/25 14:06:22;;;;;;;21.63;18.63;;;4.40;99.90;;;;;;5074048;28;20439;-68
2023/01/25 14:08:50;;;;;;;25.77;21.00;;;4.50;99.90;;;;;;5073636;28;20995;-68
2023/01/25 14:11:22;;;;;;;25.10;21.47;;;4.50;99.90;;;;;;5073767;28;20933;-68
2023/01/25 14:13:57;;;;;;;23.13;19.17;;;4.50;99.90;;;;;;5073950;28;20450;-69
2023/01/25 14:16:23;;;;;;;20.83;18.60;;;4.60;99.90;;;;;;5073496;28;20527;-68
2023/01/25 14:18:50;;;;;;;24.40;21.10;;;4.60;99.90;;;;;;5073741;28;20505;-68
2023/01/25 14:21:18;;;;;;;24.07;21.10;;;4.50;99.90;;;;;;5074001;28;20446;-68
2023/01/25 14:23:45;;;;;;;21.87;19.10;;;4.60;99.90;;;;;;5073720;28;20454;-68
2023/01/25 14:26:18;;;;;;;21.70;18.50;;;4.60;99.90;;;;;;5073493;28;20474;-68
2023/01/25 14:28:48;;;;;;;24.23;19.83;;;4.60;99.90;;;;;;5073295;28;20466;-68
2023/01/25 14:31:21;;;;;;;23.33;20.43;;;4.60;99.90;;;;;;5073642;28;20454;-68
2023/01/25 14:33:53;;;;;;;23.03;18.90;;;4.50;99.90;;;;;;5073737;28;20464;-68
2023/01/25 14:36:20;;;;;;;23.20;18.90;;;4.40;99.90;;;;;;5074079;28;20441;-69
2023/01/25 14:38:47;;;;;;;23.07;20.57;;;4.30;99.90;;;;;;5073511;28;20529;-69
2023/01/25 14:41:18;;;;;;;25.17;22.57;;;4.20;99.90;;;;;;5073580;28;20454;-68
2023/01/25 14:43:48;;;;;;;24.87;21.17;;;4.20;99.90;;;;;;5073589;28;20438;-68
2023/01/25 14:46:22;;;;;;;24.33;21.80;;;4.30;99.90;;;;;;5074045;28;20793;-68
2023/01/25 14:48:50;;;;;;;23.40;20.97;;;4.30;99.90;;;;;;5074884;28;20438;-67
2023/01/25 14:51:27;;;;;;;24.73;22.10;;;4.30;99.90;;;;;;5077403;28;21051;-68
2023/01/25 14:53:59;;;;;;;24.37;21.77;;;4.40;99.90;;;;;;5077062;28;20913;-68
2023/01/25 14:56:41;;;;;;;25.60;22.57;;;4.30;99.90;;;;;;5077947;28;20434;-68
2023/01/25 14:59:29;;;;;;;25.63;22.30;;;4.30;99.90;;;;;;5077200;28;20466;-68
2023/01/25 15:01:57;;;;;;;23.73;21.23;;;4.30;99.90;;;;;;5077279;28;20438;-68
2023/01/25 15:04:24;;;;;;;25.60;22.80;;;4.30;99.90;;;;;;5077465;28;20825;-68
2023/01/25 15:06:52;;;;;;;26.70;22.80;;;4.30;99.90;;;;;;5077410;28;20532;-68
2023/01/25 15:09:34;;;;;;;27.90;23.47;;;4.30;99.90;;;;;;5076982;28;21051;-68
2023/01/25 15:12:01;;;;;;;27.00;24.10;;;4.30;99.90;;;;;;5076887;28;21166;-68
2023/01/25 15:14:29;;;;;;;27.60;24.60;;;4.30;99.90;;;;;;5077254;28;20864;-67
2023/01/25 15:16:56;;;;;;;25.30;22.60;;;4.30;99.90;;;;;;5076456;28;20889;-67
2023/01/25 15:19:25;;;;;;;24.40;21.30;;;4.20;99.90;;;;;;5076973;28;20450;-67
2023/01/25 15:21:54;;;;;;;25.30;22.10;;;4.20;99.90;;;;;;5077025;28;20897;-67
2023/01/25 15:24:22;;;;;;;28.20;25.20;;;4.20;99.90;;;;;;5076916;28;20454;-69
2023/01/25 15:26:50;;;;;;;26.80;23.23;;;4.20;99.90;;;;;;5076570;28;20486;-68
2023/01/25 15:29:20;;;;;;;26.47;23.17;;;4.20;99.90;;;;;;5076789;28;20486;-68
2023/01/25 15:31:50;;;;;;;28.97;24.40;;;4.20;99.90;;;;;;5076896;28;20556;-67
2023/01/25 15:34:18;;;;;;;32.63;26.77;;;4.20;99.90;;;;;;5077156;28;20454;-67
2023/01/25 15:36:45;;;;;;;31.63;26.30;;;4.10;99.90;;;;;;5076329;28;20554;-67
2023/01/25 15:39:14;;;;;;;29.07;24.90;;;4.10;99.90;;;;;;5076379;28;20450;-67
2023/01/25 15:41:41;;;;;;;39.13;30.90;;;4.10;99.90;;;;;;5076443;28;20540;-67
2023/01/25 15:44:08;;;;;;;40.63;30.40;;;4.10;99.90;;;;;;5076380;28;20446;-68
2023/01/25 15:46:35;;;;;;;35.37;29.17;;;4.00;99.90;;;;;;5076166;28;20478;-68
2023/01/25 15:49:05;;;;;;;35.83;29.27;;;4.00;99.90;;;;;;5076340;28;20457;-67
2023/01/25 15:51:32;;;;;;;37.30;28.80;;;4.00;99.90;;;;;;5076073;28;20457;-67
2023/01/25 15:53:59;;;;;;;32.30;25.47;;;4.00;99.90;;;;;;5076152;28;20490;-67
2023/01/25 15:56:29;;;;;;;33.43;28.10;;;4.00;99.90;;;;;;5076252;28;20802;-67
2023/01/25 15:58:58;;;;;;;30.70;25.30;;;4.00;99.90;;;;;;5076088;28;20519;-68
2023/01/25 16:01:27;;;;;;;32.60;26.40;;;4.10;99.90;;;;;;5076174;28;20818;-67
2023/01/25 16:03:53;;;;;;;30.57;25.70;;;4.10;99.90;;;;;;5076184;28;20454;-67
2023/01/25 16:06:31;;;;;;;32.70;26.63;;;4.10;99.90;;;;;;5076475;28;20454;-69
2023/01/25 16:08:58;;;;;;;31.33;27.50;;;4.10;99.90;;;;;;5076712;28;20438;-67
2023/01/25 16:11:25;;;;;;;30.17;25.37;;;4.20;99.90;;;;;;5076694;28;20540;-67
2023/01/25 16:13:52;;;;;;;31.90;25.97;;;4.20;99.90;;;;;;5076512;28;20527;-67
2023/01/25 16:16:21;;;;;;;34.07;28.30;;;4.20;99.90;;;;;;5076522;28;20451;-67
2023/01/25 16:18:48;;;;;;;31.70;26.70;;;4.30;99.90;;;;;;5076725;28;20450;-67
2023/01/25 16:21:15;;;;;;;32.50;27.87;;;4.20;99.90;;;;;;5076652;28;20446;-67
2023/01/25 16:23:43;;;;;;;32.60;27.20;;;4.30;99.90;;;;;;5076765;28;20507;-67
2023/01/25 16:26:17;;;;;;;32.17;27.30;;;4.20;99.90;;;;;;5076342;28;21010;-67
2023/01/25 16:28:44;;;;;;;35.17;28.20;;;4.20;99.90;;;;;;5077445;28;20437;-67
2023/01/25 16:31:13;;;;;;;33.13;27.80;;;4.20;99.90;;;;;;5076686;28;20965;-68
2023/01/25 16:33:40;;;;;;;33.17;27.80;;;4.20;99.90;;;;;;5077846;28;20489;-68
2023/01/25 16:36:14;;;;;;;35.47;29.93;;;4.10;99.90;;;;;;5076958;28;20515;-67
2023/01/25 16:38:42;;;;;;;32.63;27.60;;;4.10;99.90;;;;;;5076697;28;20434;-67
2023/01/25 16:41:12;;;;;;;33.00;27.80;;;4.00;99.90;;;;;;5076833;28;20446;-68
2023/01/25 16:43:39;;;;;;;35.70;28.30;;;4.00;99.90;;;;;;5076164;28;20457;-68
2023/01/25 16:46:11;;;;;;;40.10;32.53;;;4.00;99.90;;;;;;5076267;28;20478;-67
2023/01/25 16:48:38;;;;;;;33.53;29.90;;;3.90;99.90;;;;;;5077345;28;20435;-67
2023/01/25 16:51:05;;;;;;;35.63;29.93;;;3.80;99.90;;;;;;5076937;28;20886;-67
2023/01/25 16:53:32;;;;;;;35.27;28.97;;;3.80;99.90;;;;;;5076472;28;20942;-69
2023/01/25 16:56:00;;;;;;;38.30;30.27;;;3.80;99.90;;;;;;5076639;28;20885;-67
2023/01/25 16:58:26;;;;;;;36.57;30.97;;;3.80;99.90;;;;;;5077788;28;20519;-68
2023/01/25 17:00:53;;;;;;;36.20;29.43;;;3.80;99.90;;;;;;5076161;28;20453;-68
2023/01/25 17:03:20;;;;;;;36.73;29.53;;;3.80;99.90;;;;;;5076152;28;20457;-68
2023/01/25 17:05:46;;;;;;;38.60;31.10;;;3.80;99.90;;;;;;5076067;28;20454;-68
2023/01/25 17:08:13;;;;;;;35.17;29.47;;;3.80;99.90;;;;;;5075590;28;20478;-67
2023/01/25 17:10:40;;;;;;;36.03;29.70;;;3.70;99.90;;;;;;5075359;28;20524;-67
2023/01/25 17:13:08;;;;;;;35.27;29.70;;;3.80;99.90;;;;;;5076867;28;20465;-67
2023/01/25 17:15:34;;;;;;;38.50;30.53;;;3.80;99.90;;;;;;5075761;28;20454;-68
2023/01/25 17:18:01;;;;;;;36.93;29.53;;;3.90;99.90;;;;;;5075891;28;20474;-68
2023/01/25 17:20:28;;;;;;;29.70;26.27;;;3.90;99.90;;;;;;5075953;28;20446;-67
2023/01/25 17:22:54;;;;;;;33.03;27.63;;;3.90;99.90;;;;;;5075469;28;20450;-67
2023/01/25 17:25:21;;;;;;;32.70;27.70;;;3.80;99.90;;;;;;5075713;28;20679;-68
2023/01/25 17:27:48;;;;;;;33.37;27.53;;;3.80;99.90;;;;;;5075519;28;20485;-68
2023/01/25 17:30:18;;;;;;;33.50;27.60;;;3.80;99.90;;;;;;5075632;28;20527;-68
2023/01/25 17:32:44;;;;;;;32.50;27.73;;;3.80;99.90;;;;;;5075659;28;20541;-68
2023/01/25 17:35:11;;;;;;;33.53;28.37;;;3.90;99.90;;;;;;5075234;28;20454;-68
2023/01/25 17:37:39;;;;;;;34.97;28.80;;;3.90;99.90;;;;;;5075160;28;20474;-68
2023/01/25 17:40:08;;;;;;;31.07;26.17;;;3.90;99.90;;;;;;5075281;28;20521;-67
2023/01/25 17:42:35;;;;;;;32.63;27.73;;;3.80;99.90;;;;;;5075682;28;20445;-67
2023/01/25 17:45:02;;;;;;;32.00;27.93;;;3.90;99.90;;;;;;5075777;28;20457;-66
2023/01/25 17:47:30;;;;;;;31.57;27.83;;;3.90;99.90;;;;;;5075242;28;20496;-67
2023/01/25 17:49:57;;;;;;;36.20;29.37;;;3.90;99.90;;;;;;5075337;28;20507;-68
2023/01/25 17:52:23;;;;;;;33.00;27.00;;;3.90;99.90;;;;;;5074756;28;20450;-68
2023/01/25 17:54:50;;;;;;;32.63;27.80;;;3.90;99.90;;;;;;5075323;28;20450;-68
2023/01/25 17:57:22;;;;;;;32.53;27.63;;;3.90;99.90;;;;;;5074761;28;20532;-68
2023/01/25 17:59:49;;;;;;;30.03;26.60;;;3.90;99.90;;;;;;5075087;28;20438;-68
2023/01/25 18:02:16;;;;;;;34.20;28.10;;;3.90;99.90;;;;;;5074840;28;20450;-67
2023/01/25 18:04:44;;;;;;;30.00;26.13;;;3.90;99.90;;;;;;5075126;28;20454;-68
2023/01/25 18:07:10;;;;;;;33.10;28.50;;;3.90;99.90;;;;;;5074892;28;20470;-67
2023/01/25 18:09:37;;;;;;;30.80;26.40;;;4.00;99.90;;;;;;5074909;28;20523;-68
2023/01/25 18:12:04;;;;;;;35.50;28.17;;;4.00;99.90;;;;;;5074444;28;20985;-68
2023/01/25 18:14:31;;;;;;;33.07;27.10;;;4.00;99.90;;;;;;5074716;28;20929;-68
2023/01/25 18:16:58;;;;;;;32.83;25.90;;;4.00;99.90;;;;;;5075209;28;20470;-68
2023/01/25 18:19:24;;;;;;;31.77;27.03;;;4.10;99.90;;;;;;5075238;28;20458;-68
2023/01/25 18:21:52;;;;;;;33.57;27.37;;;4.00;99.90;;;;;;5075916;28;20450;-67
2023/01/25 18:24:25;;;;;;;31.20;26.20;;;4.10;99.90;;;;;;5075831;28;20450;-68
2023/01/25 18:26:58;;;;;;;35.33;28.70;;;4.10;99.90;;;;;;5075027;28;20481;-69
2023/01/25 18:29:46;;;;;;;34.57;27.50;;;4.10;99.90;;;;;;5075904;28;20446;-67
2023/01/25 18:32:13;;;;;;;29.20;24.80;;;4.20;99.90;;;;;;5074546;28;20565;-69
2023/01/25 18:34:39;;;;;;;29.50;25.40;;;4.20;99.90;;;;;;5075325;28;20813;-67
2023/01/25 18:37:17;;;;;;;33.90;27.43;;;4.10;99.90;;;;;;5075118;28;20826;-68
2023/01/25 18:39:44;;;;;;;35.97;29.00;;;4.10;99.90;;;;;;5074937;28;20524;-67
2023/01/25 18:42:10;;;;;;;34.20;27.17;;;4.10;99.90;;;;;;5074817;28;20499;-68
2023/01/25 18:44:37;;;;;;;31.23;25.07;;;4.10;99.90;;;;;;5074439;28;20544;-68
2023/01/25 18:47:04;;;;;;;29.60;25.57;;;4.00;99.90;;;;;;5078610;28;20571;-68
2023/01/25 18:49:31;;;;;;;34.00;26.53;;;4.00;99.90;;;;;;5081528;28;20844;-68
2023/01/25 18:51:57;;;;;;;33.70;26.53;;;4.00;99.90;;;;;;5080540;28;20499;-68
2023/01/25 18:54:25;;;;;;;35.03;28.43;;;4.00;99.90;;;;;;5078648;28;20795;-68
2023/01/25 18:56:54;;;;;;;30.93;26.70;;;4.10;99.90;;;;;;5075852;28;20581;-68
2023/01/25 18:59:20;;;;;;;33.30;28.73;;;4.10;99.90;;;;;;5075202;28;20930;-69
2023/01/25 19:01:47;;;;;;;32.63;27.20;;;4.10;99.90;;;;;;5074853;28;20837;-68
2023/01/25 19:04:14;;;;;;;32.57;25.23;;;4.10;99.90;;;;;;5074746;28;20499;-68
2023/01/25 19:06:40;;;;;;;33.97;26.97;;;4.10;99.90;;;;;;5074409;28;20477;-67
2023/01/25 19:09:07;;;;;;;31.70;25.93;;;4.10;99.90;;;;;;5074262;28;20450;-68
2023/01/25 19:11:35;;;;;;;30.03;25.30;;;4.00;99.90;;;;;;5074858;28;20469;-67
2023/01/25 19:14:02;;;;;;;34.77;28.60;;;4.00;99.90;;;;;;5075077;28;20507;-68
2023/01/25 19:16:29;;;;;;;31.83;24.77;;;4.00;99.90;;;;;;5074604;28;20458;-68
2023/01/25 19:18:56;;;;;;;30.97;24.77;;;4.00;99.90;;;;;;5074243;28;20488;-68
2023/01/25 19:21:25;;;;;;;29.10;23.80;;;4.00;99.90;;;;;;5074155;28;20996;-68
2023/01/25 19:23:53;;;;;;;31.03;25.90;;;4.00;99.90;;;;;;5074126;28;20442;-68